Kouseimaru No3 — JD3480 — position and weather

sailwx.info

Track history (hours):
 
Tides and Currents Weather Stations Pressure Air Temp Water Temp Dewpoint Dewpoint Depression Visibility Wind Speed Wind Dir Waves Ship Positions

Kouseimaru No3

Last reported at 2018-Feb-22 14:42 UTC. Time now 2018-Feb-23 00:48 UTC.
Position N 34°18' E 134°32'.

Length 75 m; draft 3 m.

Type: Cargo ship. MMSI: 431004193.

Date/timePositionNaut miles runAvg speedWind from/ knotsBaromVisibWave heightAir tempDewpointWater temp
2018-Feb-22 14:42N 34°18' E 134°32'612.3
2018-Feb-22 14:12N 34°15' E 134°39'313.2
2018-Feb-22 13:58N 34°12' E 134°41'612.1
2018-Feb-22 13:29N 34°08' E 134°45'611.4
2018-Feb-22 12:55N 34°03' E 134°50'511.5
2018-Feb-22 12:30N 33°59' E 134°54'611.8
2018-Feb-22 12:00N 33°54' E 134°58'176 9.3
2018-Feb-21 17:07N 34°34' E 138°26'1510.3
2018-Feb-21 15:40N 34°35' E 138°44'410.6
2018-Feb-21 15:18N 34°35' E 138°49'510.1
2018-Feb-21 14:50N 34°36' E 138°54'410.3
2018-Feb-21 14:26N 34°38' E 138°59'511.4
2018-Feb-21 13:59N 34°42' E 139°03'612.0
2018-Feb-21 13:28N 34°47' E 139°07'1111.1
2018-Feb-21 12:29N 34°56' E 139°14'510.8
2018-Feb-21 12:00N 34°58' E 139°20'610.4
2018-Feb-21 11:27N 35°01' E 139°26'510.8
2018-Feb-21 11:00N 35°03' E 139°32'611.4
2018-Feb-21 10:29N 35°05' E 139°38'611.8
2018-Feb-21 10:00N 35°09' E 139°44'510.8
2018-Feb-21 09:30N 35°14' E 139°46'510.4
2018-Feb-21 09:00N 35°19' E 139°43'510.3
2018-Feb-21 08:30N 35°24' E 139°43'510.8
2018-Feb-21 08:00N 35°28' E 139°47'1311.2
2018-Feb-21 06:51N 35°33' E 140°01'3 9.8
2018-Feb-21 06:30N 35°33' E 140°06'1 2.1
2018-Feb-21 06:00N 35°33' E 140°07'0 0.0
2018-Feb-21 05:26N 35°33' E 140°07'0 0.0
2018-Feb-21 05:00N 35°33' E 140°07'0 0.0
2018-Feb-21 04:28N 35°33' E 140°07'0 0.0
2018-Feb-21 04:00N 35°33' E 140°07'0 0.0
2018-Feb-21 03:30N 35°33' E 140°07'0 0.0
2018-Feb-21 02:57N 35°33' E 140°07'0 0.0
2018-Feb-21 02:30N 35°33' E 140°07'0 0.0
2018-Feb-21 02:00N 35°33' E 140°07'0 0.0
2018-Feb-21 01:30N 35°33' E 140°07'0 0.0
2018-Feb-21 01:00N 35°33' E 140°07'0 0.0
2018-Feb-21 00:30N 35°33' E 140°07'0 0.0
2018-Feb-21 00:00N 35°33' E 140°07'0 0.0
2018-Feb-20 23:30N 35°33' E 140°07'0 0.9
2018-Feb-20 23:00N 35°33' E 140°06'3 5.1
2018-Feb-20 22:30N 35°34' E 140°04'0 0.1
2018-Feb-20 22:00N 35°34' E 140°04'0 0.0
2018-Feb-20 21:30N 35°34' E 140°04'0 0.0
2018-Feb-20 21:00N 35°34' E 140°04'0 0.0
2018-Feb-20 20:30N 35°34' E 140°04'0 0.0
2018-Feb-20 20:00N 35°34' E 140°04'0 0.1
2018-Feb-20 19:30N 35°34' E 140°04'0 0.0
2018-Feb-20 19:00N 35°34' E 140°04'0 0.0
2018-Feb-20 18:30N 35°34' E 140°04'0 0.0
2018-Feb-20 18:00N 35°34' E 140°04'0 0.0
2018-Feb-20 17:30N 35°34' E 140°04'0 0.1
2018-Feb-20 16:59N 35°34' E 140°04'0 0.0
2018-Feb-20 16:30N 35°34' E 140°04'0 0.0
2018-Feb-20 16:00N 35°34' E 140°04'0 0.1
2018-Feb-20 15:30N 35°34' E 140°04'0 0.1
2018-Feb-20 15:00N 35°34' E 140°04'0 0.1
2018-Feb-20 14:30N 35°34' E 140°04'0 0.0
2018-Feb-20 14:00N 35°34' E 140°04'0 0.0
2018-Feb-20 13:30N 35°34' E 140°04'0 0.0
2018-Feb-20 13:00N 35°34' E 140°04'0 0.0
2018-Feb-20 12:30N 35°34' E 140°04'0 0.0
2018-Feb-20 12:00N 35°34' E 140°04'0 0.0
2018-Feb-20 11:30N 35°34' E 140°04'0 0.0
2018-Feb-20 11:00N 35°34' E 140°04'0 0.0
2018-Feb-20 10:30N 35°34' E 140°04'0 0.0
2018-Feb-20 10:00N 35°34' E 140°04'0 0.0
2018-Feb-20 09:30N 35°34' E 140°04'0 0.0
2018-Feb-20 09:00N 35°34' E 140°04'0 0.6
2018-Feb-20 08:30N 35°34' E 140°04'3 5.3
2018-Feb-20 07:59N 35°33' E 140°07'0 0.0
2018-Feb-20 07:30N 35°33' E 140°07'0 0.0
2018-Feb-20 06:58N 35°33' E 140°07'0 0.0
2018-Feb-20 06:30N 35°33' E 140°07'0 0.0
2018-Feb-20 05:57N 35°33' E 140°07'0 0.0
2018-Feb-20 05:28N 35°33' E 140°07'0 0.0
2018-Feb-20 04:57N 35°33' E 140°07'0 0.0
2018-Feb-20 04:30N 35°33' E 140°07'0 0.0
2018-Feb-20 04:00N 35°33' E 140°07'0 0.0
2018-Feb-20 03:30N 35°33' E 140°07'0 0.0
2018-Feb-20 02:58N 35°33' E 140°07'0 0.0
2018-Feb-20 02:25N 35°33' E 140°07'0 0.0
2018-Feb-20 01:54N 35°33' E 140°07'0 0.0
2018-Feb-20 01:25N 35°33' E 140°07'0 0.0
2018-Feb-20 00:48N 35°33' E 140°07'0 0.0
2018-Feb-20 00:22N 35°33' E 140°07'0 0.0
2018-Feb-19 23:59N 35°33' E 140°07'0 0.0
2018-Feb-19 23:28N 35°33' E 140°07'1 1.2
2018-Feb-19 23:00N 35°33' E 140°06'2 4.6
2018-Feb-19 22:30N 35°34' E 140°04'0 0.0
2018-Feb-19 22:00N 35°34' E 140°04'0 0.0
2018-Feb-19 21:30N 35°34' E 140°04'0 0.0
2018-Feb-19 21:00N 35°34' E 140°04'0 0.0
2018-Feb-19 20:30N 35°34' E 140°04'0 0.0
2018-Feb-19 20:00N 35°34' E 140°04'0 0.0
2018-Feb-19 19:30N 35°34' E 140°04'0 0.0
2018-Feb-19 19:00N 35°34' E 140°04'0 0.0
2018-Feb-19 18:30N 35°34' E 140°04'0 0.0
2018-Feb-19 18:00N 35°34' E 140°04'0 0.1
2018-Feb-19 17:30N 35°34' E 140°04'0 0.0
2018-Feb-19 17:00N 35°34' E 140°04'0 0.0
2018-Feb-19 16:30N 35°34' E 140°04'0 0.0
2018-Feb-19 16:00N 35°34' E 140°04'0 0.0
2018-Feb-19 15:30N 35°34' E 140°04'0 0.0
2018-Feb-19 15:00N 35°34' E 140°04'0 0.0
2018-Feb-19 14:30N 35°34' E 140°04'0 0.0
2018-Feb-19 14:00N 35°34' E 140°04'0 0.0
2018-Feb-19 13:30N 35°34' E 140°04'0 0.0
2018-Feb-19 13:00N 35°34' E 140°04'0 0.1
2018-Feb-19 12:30N 35°34' E 140°04'0 0.1
2018-Feb-19 12:00N 35°34' E 140°04'0 0.0
2018-Feb-19 11:29N 35°34' E 140°04'0 0.0
2018-Feb-19 11:00N 35°34' E 140°04'0 0.0
2018-Feb-19 10:30N 35°34' E 140°04'0 0.0
2018-Feb-19 10:00N 35°34' E 140°04'0 0.0
2018-Feb-19 09:30N 35°34' E 140°04'0 0.0
2018-Feb-19 09:00N 35°34' E 140°04'0 0.1
2018-Feb-19 08:30N 35°34' E 140°04'0 0.1
2018-Feb-19 08:00N 35°34' E 140°04'0 0.0
2018-Feb-19 07:30N 35°34' E 140°04'0 0.0
2018-Feb-19 07:00N 35°34' E 140°04'0 0.0
2018-Feb-19 06:30N 35°34' E 140°04'0 0.0
2018-Feb-19 06:00N 35°34' E 140°04'2 3.9
2018-Feb-19 05:30N 35°34' E 140°06'1 2.0
2018-Feb-19 04:56N 35°34' E 140°08'0 0.0
2018-Feb-19 04:30N 35°34' E 140°08'0 0.0
2018-Feb-19 03:57N 35°34' E 140°08'0 0.0
2018-Feb-19 03:30N 35°34' E 140°08'0 0.0
2018-Feb-19 03:00N 35°34' E 140°08'0 0.0
2018-Feb-19 02:30N 35°34' E 140°08'0 0.1
2018-Feb-19 02:00N 35°34' E 140°08'0 0.1
2018-Feb-19 01:30N 35°34' E 140°08'0 0.0
2018-Feb-19 01:00N 35°34' E 140°08'0 0.0
2018-Feb-19 00:30N 35°34' E 140°08'0 0.0
2018-Feb-19 00:00N 35°34' E 140°08'0 0.1
2018-Feb-18 23:30N 35°34' E 140°08'0 0.1
2018-Feb-18 23:00N 35°34' E 140°08'0 0.0
2018-Feb-18 22:30N 35°34' E 140°08'0 0.0
2018-Feb-18 22:00N 35°34' E 140°08'0 0.0
2018-Feb-18 21:29N 35°34' E 140°08'0 0.0
2018-Feb-18 21:00N 35°34' E 140°08'0 0.0
2018-Feb-18 20:30N 35°34' E 140°08'0 0.0
2018-Feb-18 20:00N 35°34' E 140°08'0 0.0
2018-Feb-18 19:30N 35°34' E 140°08'0 0.0
2018-Feb-18 19:00N 35°34' E 140°08'0 0.0
2018-Feb-18 18:30N 35°34' E 140°08'0 0.1
2018-Feb-18 18:00N 35°34' E 140°08'0 0.0
2018-Feb-18 17:30N 35°34' E 140°08'0 0.0
2018-Feb-18 17:00N 35°34' E 140°08'0 0.1
2018-Feb-18 16:30N 35°34' E 140°08'0 0.0
2018-Feb-18 16:00N 35°34' E 140°08'0 0.0
2018-Feb-18 15:30N 35°34' E 140°08'0 0.0
2018-Feb-18 15:00N 35°34' E 140°08'0 0.0
2018-Feb-18 14:30N 35°34' E 140°08'0 0.0
2018-Feb-18 14:00N 35°34' E 140°08'0 0.0
2018-Feb-18 13:30N 35°34' E 140°08'0 0.0
2018-Feb-18 12:58N 35°34' E 140°08'0 0.0
2018-Feb-18 12:30N 35°34' E 140°08'0 0.0
2018-Feb-18 12:00N 35°34' E 140°08'0 0.0
2018-Feb-18 11:30N 35°34' E 140°08'0 0.0
2018-Feb-18 11:00N 35°34' E 140°08'0 0.0
2018-Feb-18 10:30N 35°34' E 140°08'0 0.0
2018-Feb-18 10:00N 35°34' E 140°08'0 0.0
2018-Feb-18 09:30N 35°34' E 140°08'0 0.0
2018-Feb-18 09:00N 35°34' E 140°08'0 0.0
2018-Feb-18 08:30N 35°34' E 140°08'0 0.0
2018-Feb-18 08:00N 35°34' E 140°08'0 0.0
2018-Feb-18 07:30N 35°34' E 140°08'0 0.0
2018-Feb-18 07:00N 35°34' E 140°08'0 0.0
2018-Feb-18 06:30N 35°34' E 140°08'0 0.0
2018-Feb-18 06:00N 35°34' E 140°08'0 0.0
2018-Feb-18 05:30N 35°34' E 140°08'0 0.0
2018-Feb-18 05:00N 35°34' E 140°08'0 0.0
2018-Feb-18 04:30N 35°34' E 140°08'0 0.0
2018-Feb-18 04:00N 35°34' E 140°08'0 0.0
2018-Feb-18 03:30N 35°34' E 140°08'0 0.0
2018-Feb-18 03:00N 35°34' E 140°08'0 0.0
2018-Feb-18 02:30N 35°34' E 140°08'0 0.0
2018-Feb-18 02:00N 35°34' E 140°08'0 0.0
2018-Feb-18 01:30N 35°34' E 140°08'0 0.0
2018-Feb-18 01:00N 35°34' E 140°08'0 0.0
2018-Feb-18 00:30N 35°34' E 140°08'0 0.0
2018-Feb-18 00:00N 35°34' E 140°08'0 0.0
2018-Feb-17 23:29N 35°34' E 140°08'0 0.0
2018-Feb-17 23:00N 35°34' E 140°08'0 0.0
2018-Feb-17 22:30N 35°34' E 140°08'0 0.0
2018-Feb-17 22:00N 35°34' E 140°08'0 0.0
2018-Feb-17 21:30N 35°34' E 140°08'0 0.0
2018-Feb-17 21:00N 35°34' E 140°08'0 0.0
2018-Feb-17 20:30N 35°34' E 140°08'0 0.1
2018-Feb-17 20:00N 35°34' E 140°08'0 0.1
2018-Feb-17 19:30N 35°34' E 140°08'0 0.0
2018-Feb-17 18:59N 35°34' E 140°08'0 0.0
2018-Feb-17 18:30N 35°34' E 140°08'0 0.1
2018-Feb-17 17:59N 35°34' E 140°08'0 0.1
2018-Feb-17 17:30N 35°34' E 140°08'0 0.0
2018-Feb-17 17:00N 35°34' E 140°08'0 0.0
2018-Feb-17 16:30N 35°34' E 140°08'0 0.0
2018-Feb-17 16:00N 35°34' E 140°08'0 0.0
2018-Feb-17 15:30N 35°34' E 140°08'0 0.0
2018-Feb-17 15:00N 35°34' E 140°08'0 0.0
2018-Feb-17 14:30N 35°34' E 140°08'0 0.0
2018-Feb-17 14:00N 35°34' E 140°08'0 0.0
2018-Feb-17 13:30N 35°34' E 140°08'0 0.0
2018-Feb-17 13:00N 35°34' E 140°08'0 0.0
2018-Feb-17 12:30N 35°34' E 140°08'0 0.1
2018-Feb-17 11:59N 35°34' E 140°08'0 0.1
2018-Feb-17 11:30N 35°34' E 140°08'0 0.0
2018-Feb-17 11:00N 35°34' E 140°08'0 0.0
2018-Feb-17 10:30N 35°34' E 140°08'0 0.0
2018-Feb-17 09:59N 35°34' E 140°08'0 0.0
2018-Feb-17 09:30N 35°34' E 140°08'0 0.0
2018-Feb-17 09:00N 35°34' E 140°08'0 0.0
2018-Feb-17 08:30N 35°34' E 140°08'0 0.0
2018-Feb-17 08:00N 35°34' E 140°08'0 0.0
2018-Feb-17 07:30N 35°34' E 140°08'0 0.0
2018-Feb-17 07:00N 35°34' E 140°08'0 0.0
2018-Feb-17 06:30N 35°34' E 140°08'0 0.0
2018-Feb-17 06:00N 35°34' E 140°08'0 0.1
2018-Feb-17 05:30N 35°34' E 140°08'0 0.0
2018-Feb-17 04:59N 35°34' E 140°08'0 0.0
2018-Feb-17 04:30N 35°34' E 140°08'0 0.1
2018-Feb-17 04:00N 35°34' E 140°08'0 0.0
2018-Feb-17 03:30N 35°34' E 140°08'0 0.0
2018-Feb-17 02:59N 35°34' E 140°08'0 0.0
2018-Feb-17 02:30N 35°34' E 140°08'0 0.0
2018-Feb-17 02:00N 35°34' E 140°08'0 0.0
2018-Feb-17 01:30N 35°34' E 140°08'0 0.0
2018-Feb-17 01:00N 35°34' E 140°08'0 0.0
2018-Feb-17 00:30N 35°34' E 140°08'0 0.0
2018-Feb-17 00:00N 35°34' E 140°08'0 0.0
2018-Feb-16 23:30N 35°34' E 140°08'1 1.7
2018-Feb-16 23:00N 35°34' E 140°06'3 6.2
2018-Feb-16 22:30N 35°33' E 140°03'0 1.0
2018-Feb-16 22:00N 35°33' E 140°02'0 0.0
2018-Feb-16 21:30N 35°33' E 140°02'0 0.0
2018-Feb-16 21:00N 35°33' E 140°02'1 1.1
2018-Feb-16 20:30N 35°33' E 140°02'710.9
2018-Feb-16 19:54N 35°30' E 139°54'4 9.7
2018-Feb-16 19:30N 35°28' E 139°51'510.0
2018-Feb-16 19:00N 35°27' E 139°45'2 4.9
2018-Feb-16 18:30N 35°28' E 139°42'0 0.1
2018-Feb-16 18:00N 35°28' E 139°42'0 0.1
2018-Feb-16 17:30N 35°28' E 139°42'0 0.0
2018-Feb-16 17:00N 35°28' E 139°42'0 0.1
2018-Feb-16 16:30N 35°28' E 139°42'0 0.0
2018-Feb-16 16:00N 35°28' E 139°42'0 0.1
2018-Feb-16 15:30N 35°28' E 139°42'0 0.0
2018-Feb-16 15:00N 35°28' E 139°42'0 0.0
2018-Feb-16 14:30N 35°28' E 139°42'0 0.1
2018-Feb-16 14:01N 35°28' E 139°42'0 0.0
2018-Feb-16 13:30N 35°28' E 139°42'0 0.1
2018-Feb-16 13:00N 35°28' E 139°42'0 0.0
2018-Feb-16 12:30N 35°28' E 139°42'1 1.8
2018-Feb-16 12:00N 35°28' E 139°43'2 4.7
2018-Feb-16 11:30N 35°27' E 139°45'1 2.5
2018-Feb-16 11:00N 35°28' E 139°47'4 7.5
2018-Feb-16 10:30N 35°30' E 139°50'4 8.0
2018-Feb-16 10:00N 35°32' E 139°55'5 7.7
2018-Feb-16 09:21N 35°34' E 140°00'3 7.8
2018-Feb-16 09:00N 35°35' E 140°03'2 3.5
2018-Feb-16 08:30N 35°35' E 140°06'0 0.0
2018-Feb-16 08:00N 35°35' E 140°06'0 0.0
2018-Feb-16 07:30N 35°35' E 140°06'0 0.0
2018-Feb-16 07:00N 35°35' E 140°06'0 0.0
2018-Feb-16 06:30N 35°35' E 140°06'0 0.0
2018-Feb-16 06:00N 35°35' E 140°06'0 0.0
2018-Feb-16 05:30N 35°35' E 140°06'0 0.0
2018-Feb-16 05:00N 35°35' E 140°06'0 0.0
2018-Feb-16 04:30N 35°35' E 140°06'0 0.0
2018-Feb-16 04:00N 35°35' E 140°06'0 0.0
2018-Feb-16 03:30N 35°35' E 140°06'0 0.0
2018-Feb-16 03:00N 35°35' E 140°06'0 0.0
2018-Feb-16 02:30N 35°35' E 140°06'0 0.0
2018-Feb-16 02:00N 35°35' E 140°06'0 0.0
2018-Feb-16 01:30N 35°35' E 140°06'0 0.0
2018-Feb-16 01:00N 35°35' E 140°06'0 0.0
2018-Feb-16 00:30N 35°35' E 140°06'0 0.0
2018-Feb-16 00:00N 35°35' E 140°06'0 0.0
2018-Feb-15 23:30N 35°35' E 140°06'1 1.6
2018-Feb-15 23:00N 35°35' E 140°05'2 3.3
2018-Feb-15 22:30N 35°34' E 140°03'0 0.0
2018-Feb-15 22:00N 35°34' E 140°03'0 0.0
2018-Feb-15 21:30N 35°34' E 140°03'0 0.0
2018-Feb-15 21:00N 35°34' E 140°03'0 0.0
2018-Feb-15 20:30N 35°34' E 140°03'0 0.0
2018-Feb-15 20:00N 35°34' E 140°03'0 0.0
2018-Feb-15 19:30N 35°34' E 140°03'0 0.0
2018-Feb-15 19:00N 35°34' E 140°03'0 0.0
2018-Feb-15 18:30N 35°34' E 140°03'0 0.1
2018-Feb-15 18:00N 35°34' E 140°03'0 0.0
2018-Feb-15 17:30N 35°34' E 140°03'0 0.0
2018-Feb-15 17:00N 35°34' E 140°03'0 0.1
2018-Feb-15 16:30N 35°34' E 140°03'1 2.5
2018-Feb-15 16:00N 35°34' E 140°02'511.0
2018-Feb-15 15:30N 35°31' E 139°56'611.2
2018-Feb-15 15:00N 35°28' E 139°51'511.0
2018-Feb-15 14:30N 35°24' E 139°46'611.0
2018-Feb-15 14:00N 35°18' E 139°44'510.6
2018-Feb-15 13:30N 35°13' E 139°47'510.7
2018-Feb-15 13:00N 35°08' E 139°46'710.9
2018-Feb-15 12:21N 35°01' E 139°42'411.2
2018-Feb-15 12:00N 34°59' E 139°38'1612.1
2018-Feb-15 10:41N 34°50' E 139°22'213.4
2018-Feb-15 10:30N 34°49' E 139°20'713.1
2018-Feb-15 09:59N 34°44' E 139°14'612.9
2018-Feb-15 09:30N 34°40' E 139°08'712.2
2018-Feb-15 08:55N 34°37' E 139°00'512.1
2018-Feb-15 08:30N 34°35' E 138°55'811.5
2018-Feb-15 07:50N 34°34' E 138°46'611.4
2018-Feb-15 07:21N 34°33' E 138°39'411.1
2018-Feb-15 06:57N 34°33' E 138°34'711.6
2018-Feb-15 06:23N 34°33' E 138°25'512.1
2018-Feb-15 05:57N 34°33' E 138°19'612.3
2018-Feb-15 05:27N 34°32' E 138°12'611.9
2018-Feb-15 04:57N 34°32' E 138°04'6810.5
2018-Feb-14 22:28N 34°09' E 136°47'86 8.8
2018-Feb-14 12:40N 33°50' E 135°06'211.8
2018-Feb-14 12:28N 33°51' E 135°04'611.2
2018-Feb-14 11:56N 33°57' E 135°01'511.3
2018-Feb-14 11:30N 34°02' E 135°00'611.2
2018-Feb-14 11:00N 34°07' E 134°60'611.3
2018-Feb-14 10:30N 34°13' E 134°59'510.8
2018-Feb-14 10:00N 34°18' E 134°58'510.9
2018-Feb-14 09:30N 34°24' E 135°00'511.0
2018-Feb-14 09:01N 34°29' E 135°02'510.5
2018-Feb-14 08:30N 34°34' E 135°03'5 9.5
2018-Feb-14 08:00N 34°37' E 134°59'510.6
2018-Feb-14 07:30N 34°38' E 134°52'5 9.4
2018-Feb-14 07:00N 34°42' E 134°51'0 0.9
2018-Feb-14 06:30N 34°42' E 134°51'0 0.0
2018-Feb-14 06:00N 34°42' E 134°51'0 0.0
2018-Feb-14 05:30N 34°42' E 134°51'0 0.0
2018-Feb-14 05:00N 34°42' E 134°51'0 0.0
2018-Feb-14 04:30N 34°42' E 134°51'0 0.0
2018-Feb-14 04:00N 34°42' E 134°51'0 0.0
2018-Feb-14 03:30N 34°42' E 134°51'0 0.0
2018-Feb-14 03:00N 34°42' E 134°51'0 0.0
2018-Feb-14 02:30N 34°42' E 134°51'0 0.0
2018-Feb-14 02:00N 34°42' E 134°51'0 0.0
2018-Feb-14 01:30N 34°42' E 134°51'0 0.0
2018-Feb-14 01:00N 34°42' E 134°51'0 0.0
2018-Feb-14 00:30N 34°42' E 134°51'0 0.0
2018-Feb-14 00:00N 34°42' E 134°51'0 0.0
2018-Feb-13 23:30N 34°42' E 134°51'0 0.1
2018-Feb-13 23:00N 34°42' E 134°51'0 0.0
2018-Feb-13 07:04N 34°43' E 134°51'0 0.4
2018-Feb-13 06:55N 34°42' E 134°51'2 5.3
2018-Feb-13 06:30N 34°41' E 134°50'5 9.7
2018-Feb-13 06:00N 34°37' E 134°54'5 9.9
2018-Feb-13 05:30N 34°38' E 135°00'4 8.0
2018-Feb-13 05:00N 34°36' E 135°05'510.2
2018-Feb-13 04:30N 34°36' E 135°11'510.6
2018-Feb-13 04:01N 34°38' E 135°17'510.5
2018-Feb-13 03:30N 34°38' E 135°23'2 3.5
2018-Feb-13 03:00N 34°40' E 135°25'0 0.0
2018-Feb-13 02:30N 34°40' E 135°25'0 0.0
2018-Feb-13 02:00N 34°40' E 135°25'0 0.0
2018-Feb-13 01:30N 34°40' E 135°25'0 0.0
2018-Feb-13 01:00N 34°40' E 135°25'0 0.0
2018-Feb-13 00:30N 34°40' E 135°25'0 0.0
2018-Feb-13 00:00N 34°40' E 135°25'0 0.0
2018-Feb-12 23:30N 34°40' E 135°25'1 2.1
2018-Feb-12 23:00N 34°39' E 135°24'2 3.4
2018-Feb-12 22:30N 34°37' E 135°23'0 0.0
2018-Feb-12 22:00N 34°37' E 135°23'0 0.0
2018-Feb-12 21:30N 34°37' E 135°23'0 0.0
2018-Feb-12 21:00N 34°37' E 135°23'0 0.0
2018-Feb-12 20:30N 34°37' E 135°23'0 0.0
2018-Feb-12 20:00N 34°37' E 135°23'0 0.0
2018-Feb-12 19:30N 34°37' E 135°23'0 0.0
2018-Feb-12 19:00N 34°37' E 135°23'0 0.0
2018-Feb-12 18:30N 34°37' E 135°23'0 0.0
2018-Feb-12 18:00N 34°37' E 135°23'0 0.0
2018-Feb-12 17:30N 34°37' E 135°23'0 0.0
2018-Feb-12 17:00N 34°37' E 135°23'0 0.0
2018-Feb-12 16:29N 34°37' E 135°23'0 0.0
2018-Feb-12 16:00N 34°37' E 135°23'0 0.0
2018-Feb-12 15:29N 34°37' E 135°23'0 0.0
2018-Feb-12 15:01N 34°37' E 135°23'  
Track history (hours):
 
Tides and Currents Weather Stations Pressure Air Temp Water Temp Dewpoint Dewpoint Depression Visibility Wind Speed Wind Dir Waves Ship Positions

Kouseimaru No3

Last reported at 2018-Feb-22 14:42 UTC. Time now 2018-Feb-23 00:48 UTC.
Position N 34°18' E 134°32'.

Length 75 m; draft 3 m.

Type: Cargo ship. MMSI: 431004193.

Date/timePositionNaut miles runAvg speedWind from/ knotsBaromVisibWave heightAir tempDewpointWater temp
2018-Feb-22 14:42N 34°18' E 134°32'612.3
2018-Feb-22 14:12N 34°15' E 134°39'313.2
2018-Feb-22 13:58N 34°12' E 134°41'612.1
2018-Feb-22 13:29N 34°08' E 134°45'611.4
2018-Feb-22 12:55N 34°03' E 134°50'511.5
2018-Feb-22 12:30N 33°59' E 134°54'611.8
2018-Feb-22 12:00N 33°54' E 134°58'176 9.3
2018-Feb-21 17:07N 34°34' E 138°26'1510.3
2018-Feb-21 15:40N 34°35' E 138°44'410.6
2018-Feb-21 15:18N 34°35' E 138°49'510.1
2018-Feb-21 14:50N 34°36' E 138°54'410.3
2018-Feb-21 14:26N 34°38' E 138°59'511.4
2018-Feb-21 13:59N 34°42' E 139°03'612.0
2018-Feb-21 13:28N 34°47' E 139°07'1111.1
2018-Feb-21 12:29N 34°56' E 139°14'510.8
2018-Feb-21 12:00N 34°58' E 139°20'610.4
2018-Feb-21 11:27N 35°01' E 139°26'510.8
2018-Feb-21 11:00N 35°03' E 139°32'611.4
2018-Feb-21 10:29N 35°05' E 139°38'611.8
2018-Feb-21 10:00N 35°09' E 139°44'510.8
2018-Feb-21 09:30N 35°14' E 139°46'510.4
2018-Feb-21 09:00N 35°19' E 139°43'510.3
2018-Feb-21 08:30N 35°24' E 139°43'510.8
2018-Feb-21 08:00N 35°28' E 139°47'1311.2
2018-Feb-21 06:51N 35°33' E 140°01'3 9.8
2018-Feb-21 06:30N 35°33' E 140°06'1 2.1
2018-Feb-21 06:00N 35°33' E 140°07'0 0.0
2018-Feb-21 05:26N 35°33' E 140°07'0 0.0
2018-Feb-21 05:00N 35°33' E 140°07'0 0.0
2018-Feb-21 04:28N 35°33' E 140°07'0 0.0
2018-Feb-21 04:00N 35°33' E 140°07'0 0.0
2018-Feb-21 03:30N 35°33' E 140°07'0 0.0
2018-Feb-21 02:57N 35°33' E 140°07'0 0.0
2018-Feb-21 02:30N 35°33' E 140°07'0 0.0
2018-Feb-21 02:00N 35°33' E 140°07'0 0.0
2018-Feb-21 01:30N 35°33' E 140°07'0 0.0
2018-Feb-21 01:00N 35°33' E 140°07'0 0.0
2018-Feb-21 00:30N 35°33' E 140°07'0 0.0
2018-Feb-21 00:00N 35°33' E 140°07'0 0.0
2018-Feb-20 23:30N 35°33' E 140°07'0 0.9
2018-Feb-20 23:00N 35°33' E 140°06'3 5.1
2018-Feb-20 22:30N 35°34' E 140°04'0 0.1
2018-Feb-20 22:00N 35°34' E 140°04'0 0.0
2018-Feb-20 21:30N 35°34' E 140°04'0 0.0
2018-Feb-20 21:00N 35°34' E 140°04'0 0.0
2018-Feb-20 20:30N 35°34' E 140°04'0 0.0
2018-Feb-20 20:00N 35°34' E 140°04'0 0.1
2018-Feb-20 19:30N 35°34' E 140°04'0 0.0
2018-Feb-20 19:00N 35°34' E 140°04'0 0.0
2018-Feb-20 18:30N 35°34' E 140°04'0 0.0
2018-Feb-20 18:00N 35°34' E 140°04'0 0.0
2018-Feb-20 17:30N 35°34' E 140°04'0 0.1
2018-Feb-20 16:59N 35°34' E 140°04'0 0.0
2018-Feb-20 16:30N 35°34' E 140°04'0 0.0
2018-Feb-20 16:00N 35°34' E 140°04'0 0.1
2018-Feb-20 15:30N 35°34' E 140°04'0 0.1
2018-Feb-20 15:00N 35°34' E 140°04'0 0.1
2018-Feb-20 14:30N 35°34' E 140°04'0 0.0
2018-Feb-20 14:00N 35°34' E 140°04'0 0.0
2018-Feb-20 13:30N 35°34' E 140°04'0 0.0
2018-Feb-20 13:00N 35°34' E 140°04'0 0.0
2018-Feb-20 12:30N 35°34' E 140°04'0 0.0
2018-Feb-20 12:00N 35°34' E 140°04'0 0.0
2018-Feb-20 11:30N 35°34' E 140°04'0 0.0
2018-Feb-20 11:00N 35°34' E 140°04'0 0.0
2018-Feb-20 10:30N 35°34' E 140°04'0 0.0
2018-Feb-20 10:00N 35°34' E 140°04'0 0.0
2018-Feb-20 09:30N 35°34' E 140°04'0 0.0
2018-Feb-20 09:00N 35°34' E 140°04'0 0.6
2018-Feb-20 08:30N 35°34' E 140°04'3 5.3
2018-Feb-20 07:59N 35°33' E 140°07'0 0.0
2018-Feb-20 07:30N 35°33' E 140°07'0 0.0
2018-Feb-20 06:58N 35°33' E 140°07'0 0.0
2018-Feb-20 06:30N 35°33' E 140°07'0 0.0
2018-Feb-20 05:57N 35°33' E 140°07'0 0.0
2018-Feb-20 05:28N 35°33' E 140°07'0 0.0
2018-Feb-20 04:57N 35°33' E 140°07'0 0.0
2018-Feb-20 04:30N 35°33' E 140°07'0 0.0
2018-Feb-20 04:00N 35°33' E 140°07'0 0.0
2018-Feb-20 03:30N 35°33' E 140°07'0 0.0
2018-Feb-20 02:58N 35°33' E 140°07'0 0.0
2018-Feb-20 02:25N 35°33' E 140°07'0 0.0
2018-Feb-20 01:54N 35°33' E 140°07'0 0.0
2018-Feb-20 01:25N 35°33' E 140°07'0 0.0
2018-Feb-20 00:48N 35°33' E 140°07'0 0.0
2018-Feb-20 00:22N 35°33' E 140°07'0 0.0
2018-Feb-19 23:59N 35°33' E 140°07'0 0.0
2018-Feb-19 23:28N 35°33' E 140°07'1 1.2
2018-Feb-19 23:00N 35°33' E 140°06'2 4.6
2018-Feb-19 22:30N 35°34' E 140°04'0 0.0
2018-Feb-19 22:00N 35°34' E 140°04'0 0.0
2018-Feb-19 21:30N 35°34' E 140°04'0 0.0
2018-Feb-19 21:00N 35°34' E 140°04'0 0.0
2018-Feb-19 20:30N 35°34' E 140°04'0 0.0
2018-Feb-19 20:00N 35°34' E 140°04'0 0.0
2018-Feb-19 19:30N 35°34' E 140°04'0 0.0
2018-Feb-19 19:00N 35°34' E 140°04'0 0.0
2018-Feb-19 18:30N 35°34' E 140°04'0 0.0
2018-Feb-19 18:00N 35°34' E 140°04'0 0.1
2018-Feb-19 17:30N 35°34' E 140°04'0 0.0
2018-Feb-19 17:00N 35°34' E 140°04'0 0.0
2018-Feb-19 16:30N 35°34' E 140°04'0 0.0
2018-Feb-19 16:00N 35°34' E 140°04'0 0.0
2018-Feb-19 15:30N 35°34' E 140°04'0 0.0
2018-Feb-19 15:00N 35°34' E 140°04'0 0.0
2018-Feb-19 14:30N 35°34' E 140°04'0 0.0
2018-Feb-19 14:00N 35°34' E 140°04'0 0.0
2018-Feb-19 13:30N 35°34' E 140°04'0 0.0
2018-Feb-19 13:00N 35°34' E 140°04'0 0.1
2018-Feb-19 12:30N 35°34' E 140°04'0 0.1
2018-Feb-19 12:00N 35°34' E 140°04'0 0.0
2018-Feb-19 11:29N 35°34' E 140°04'0 0.0
2018-Feb-19 11:00N 35°34' E 140°04'0 0.0
2018-Feb-19 10:30N 35°34' E 140°04'0 0.0
2018-Feb-19 10:00N 35°34' E 140°04'0 0.0
2018-Feb-19 09:30N 35°34' E 140°04'0 0.0
2018-Feb-19 09:00N 35°34' E 140°04'0 0.1
2018-Feb-19 08:30N 35°34' E 140°04'0 0.1
2018-Feb-19 08:00N 35°34' E 140°04'0 0.0
2018-Feb-19 07:30N 35°34' E 140°04'0 0.0
2018-Feb-19 07:00N 35°34' E 140°04'0 0.0
2018-Feb-19 06:30N 35°34' E 140°04'0 0.0
2018-Feb-19 06:00N 35°34' E 140°04'2 3.9
2018-Feb-19 05:30N 35°34' E 140°06'1 2.0
2018-Feb-19 04:56N 35°34' E 140°08'0 0.0
2018-Feb-19 04:30N 35°34' E 140°08'0 0.0
2018-Feb-19 03:57N 35°34' E 140°08'0 0.0
2018-Feb-19 03:30N 35°34' E 140°08'0 0.0
2018-Feb-19 03:00N 35°34' E 140°08'0 0.0
2018-Feb-19 02:30N 35°34' E 140°08'0 0.1
2018-Feb-19 02:00N 35°34' E 140°08'0 0.1
2018-Feb-19 01:30N 35°34' E 140°08'0 0.0
2018-Feb-19 01:00N 35°34' E 140°08'0 0.0
2018-Feb-19 00:30N 35°34' E 140°08'0 0.0
2018-Feb-19 00:00N 35°34' E 140°08'0 0.1
2018-Feb-18 23:30N 35°34' E 140°08'0 0.1
2018-Feb-18 23:00N 35°34' E 140°08'0 0.0
2018-Feb-18 22:30N 35°34' E 140°08'0 0.0
2018-Feb-18 22:00N 35°34' E 140°08'0 0.0
2018-Feb-18 21:29N 35°34' E 140°08'0 0.0
2018-Feb-18 21:00N 35°34' E 140°08'0 0.0
2018-Feb-18 20:30N 35°34' E 140°08'0 0.0
2018-Feb-18 20:00N 35°34' E 140°08'0 0.0
2018-Feb-18 19:30N 35°34' E 140°08'0 0.0
2018-Feb-18 19:00N 35°34' E 140°08'0 0.0
2018-Feb-18 18:30N 35°34' E 140°08'0 0.1
2018-Feb-18 18:00N 35°34' E 140°08'0 0.0
2018-Feb-18 17:30N 35°34' E 140°08'0 0.0
2018-Feb-18 17:00N 35°34' E 140°08'0 0.1
2018-Feb-18 16:30N 35°34' E 140°08'0 0.0
2018-Feb-18 16:00N 35°34' E 140°08'0 0.0
2018-Feb-18 15:30N 35°34' E 140°08'0 0.0
2018-Feb-18 15:00N 35°34' E 140°08'0 0.0
2018-Feb-18 14:30N 35°34' E 140°08'0 0.0
2018-Feb-18 14:00N 35°34' E 140°08'0 0.0
2018-Feb-18 13:30N 35°34' E 140°08'0 0.0
2018-Feb-18 12:58N 35°34' E 140°08'0 0.0
2018-Feb-18 12:30N 35°34' E 140°08'0 0.0
2018-Feb-18 12:00N 35°34' E 140°08'0 0.0
2018-Feb-18 11:30N 35°34' E 140°08'0 0.0
2018-Feb-18 11:00N 35°34' E 140°08'0 0.0
2018-Feb-18 10:30N 35°34' E 140°08'0 0.0
2018-Feb-18 10:00N 35°34' E 140°08'0 0.0
2018-Feb-18 09:30N 35°34' E 140°08'0 0.0
2018-Feb-18 09:00N 35°34' E 140°08'0 0.0
2018-Feb-18 08:30N 35°34' E 140°08'0 0.0
2018-Feb-18 08:00N 35°34' E 140°08'0 0.0
2018-Feb-18 07:30N 35°34' E 140°08'0 0.0
2018-Feb-18 07:00N 35°34' E 140°08'0 0.0
2018-Feb-18 06:30N 35°34' E 140°08'0 0.0
2018-Feb-18 06:00N 35°34' E 140°08'0 0.0
2018-Feb-18 05:30N 35°34' E 140°08'0 0.0
2018-Feb-18 05:00N 35°34' E 140°08'0 0.0
2018-Feb-18 04:30N 35°34' E 140°08'0 0.0
2018-Feb-18 04:00N 35°34' E 140°08'0 0.0
2018-Feb-18 03:30N 35°34' E 140°08'0 0.0
2018-Feb-18 03:00N 35°34' E 140°08'0 0.0
2018-Feb-18 02:30N 35°34' E 140°08'0 0.0
2018-Feb-18 02:00N 35°34' E 140°08'0 0.0
2018-Feb-18 01:30N 35°34' E 140°08'0 0.0
2018-Feb-18 01:00N 35°34' E 140°08'0 0.0
2018-Feb-18 00:30N 35°34' E 140°08'0 0.0
2018-Feb-18 00:00N 35°34' E 140°08'0 0.0
2018-Feb-17 23:29N 35°34' E 140°08'0 0.0
2018-Feb-17 23:00N 35°34' E 140°08'0 0.0
2018-Feb-17 22:30N 35°34' E 140°08'0 0.0
2018-Feb-17 22:00N 35°34' E 140°08'0 0.0
2018-Feb-17 21:30N 35°34' E 140°08'0 0.0
2018-Feb-17 21:00N 35°34' E 140°08'0 0.0
2018-Feb-17 20:30N 35°34' E 140°08'0 0.1
2018-Feb-17 20:00N 35°34' E 140°08'0 0.1
2018-Feb-17 19:30N 35°34' E 140°08'0 0.0
2018-Feb-17 18:59N 35°34' E 140°08'0 0.0
2018-Feb-17 18:30N 35°34' E 140°08'0 0.1
2018-Feb-17 17:59N 35°34' E 140°08'0 0.1
2018-Feb-17 17:30N 35°34' E 140°08'0 0.0
2018-Feb-17 17:00N 35°34' E 140°08'0 0.0
2018-Feb-17 16:30N 35°34' E 140°08'0 0.0
2018-Feb-17 16:00N 35°34' E 140°08'0 0.0
2018-Feb-17 15:30N 35°34' E 140°08'0 0.0
2018-Feb-17 15:00N 35°34' E 140°08'0 0.0
2018-Feb-17 14:30N 35°34' E 140°08'0 0.0
2018-Feb-17 14:00N 35°34' E 140°08'0 0.0
2018-Feb-17 13:30N 35°34' E 140°08'0 0.0
2018-Feb-17 13:00N 35°34' E 140°08'0 0.0
2018-Feb-17 12:30N 35°34' E 140°08'0 0.1
2018-Feb-17 11:59N 35°34' E 140°08'0 0.1
2018-Feb-17 11:30N 35°34' E 140°08'0 0.0
2018-Feb-17 11:00N 35°34' E 140°08'0 0.0
2018-Feb-17 10:30N 35°34' E 140°08'0 0.0
2018-Feb-17 09:59N 35°34' E 140°08'0 0.0
2018-Feb-17 09:30N 35°34' E 140°08'0 0.0
2018-Feb-17 09:00N 35°34' E 140°08'0 0.0
2018-Feb-17 08:30N 35°34' E 140°08'0 0.0
2018-Feb-17 08:00N 35°34' E 140°08'0 0.0
2018-Feb-17 07:30N 35°34' E 140°08'0 0.0
2018-Feb-17 07:00N 35°34' E 140°08'0 0.0
2018-Feb-17 06:30N 35°34' E 140°08'0 0.0
2018-Feb-17 06:00N 35°34' E 140°08'0 0.1
2018-Feb-17 05:30N 35°34' E 140°08'0 0.0
2018-Feb-17 04:59N 35°34' E 140°08'0 0.0
2018-Feb-17 04:30N 35°34' E 140°08'0 0.1
2018-Feb-17 04:00N 35°34' E 140°08'0 0.0
2018-Feb-17 03:30N 35°34' E 140°08'0 0.0
2018-Feb-17 02:59N 35°34' E 140°08'0 0.0
2018-Feb-17 02:30N 35°34' E 140°08'0 0.0
2018-Feb-17 02:00N 35°34' E 140°08'0 0.0
2018-Feb-17 01:30N 35°34' E 140°08'0 0.0
2018-Feb-17 01:00N 35°34' E 140°08'0 0.0
2018-Feb-17 00:30N 35°34' E 140°08'0 0.0
2018-Feb-17 00:00N 35°34' E 140°08'0 0.0
2018-Feb-16 23:30N 35°34' E 140°08'1 1.7
2018-Feb-16 23:00N 35°34' E 140°06'3 6.2
2018-Feb-16 22:30N 35°33' E 140°03'0 1.0
2018-Feb-16 22:00N 35°33' E 140°02'0 0.0
2018-Feb-16 21:30N 35°33' E 140°02'0 0.0
2018-Feb-16 21:00N 35°33' E 140°02'1 1.1
2018-Feb-16 20:30N 35°33' E 140°02'710.9
2018-Feb-16 19:54N 35°30' E 139°54'4 9.7
2018-Feb-16 19:30N 35°28' E 139°51'510.0
2018-Feb-16 19:00N 35°27' E 139°45'2 4.9
2018-Feb-16 18:30N 35°28' E 139°42'0 0.1
2018-Feb-16 18:00N 35°28' E 139°42'0 0.1
2018-Feb-16 17:30N 35°28' E 139°42'0 0.0
2018-Feb-16 17:00N 35°28' E 139°42'0 0.1
2018-Feb-16 16:30N 35°28' E 139°42'0 0.0
2018-Feb-16 16:00N 35°28' E 139°42'0 0.1
2018-Feb-16 15:30N 35°28' E 139°42'0 0.0
2018-Feb-16 15:00N 35°28' E 139°42'0 0.0
2018-Feb-16 14:30N 35°28' E 139°42'0 0.1
2018-Feb-16 14:01N 35°28' E 139°42'0 0.0
2018-Feb-16 13:30N 35°28' E 139°42'0 0.1
2018-Feb-16 13:00N 35°28' E 139°42'0 0.0
2018-Feb-16 12:30N 35°28' E 139°42'1 1.8
2018-Feb-16 12:00N 35°28' E 139°43'2 4.7
2018-Feb-16 11:30N 35°27' E 139°45'1 2.5
2018-Feb-16 11:00N 35°28' E 139°47'4 7.5
2018-Feb-16 10:30N 35°30' E 139°50'4 8.0
2018-Feb-16 10:00N 35°32' E 139°55'5 7.7
2018-Feb-16 09:21N 35°34' E 140°00'3 7.8
2018-Feb-16 09:00N 35°35' E 140°03'2 3.5
2018-Feb-16 08:30N 35°35' E 140°06'0 0.0
2018-Feb-16 08:00N 35°35' E 140°06'0 0.0
2018-Feb-16 07:30N 35°35' E 140°06'0 0.0
2018-Feb-16 07:00N 35°35' E 140°06'0 0.0
2018-Feb-16 06:30N 35°35' E 140°06'0 0.0
2018-Feb-16 06:00N 35°35' E 140°06'0 0.0
2018-Feb-16 05:30N 35°35' E 140°06'0 0.0
2018-Feb-16 05:00N 35°35' E 140°06'0 0.0
2018-Feb-16 04:30N 35°35' E 140°06'0 0.0
2018-Feb-16 04:00N 35°35' E 140°06'0 0.0
2018-Feb-16 03:30N 35°35' E 140°06'0 0.0
2018-Feb-16 03:00N 35°35' E 140°06'0 0.0
2018-Feb-16 02:30N 35°35' E 140°06'0 0.0
2018-Feb-16 02:00N 35°35' E 140°06'0 0.0
2018-Feb-16 01:30N 35°35' E 140°06'0 0.0
2018-Feb-16 01:00N 35°35' E 140°06'0 0.0
2018-Feb-16 00:30N 35°35' E 140°06'0 0.0
2018-Feb-16 00:00N 35°35' E 140°06'0 0.0
2018-Feb-15 23:30N 35°35' E 140°06'1 1.6
2018-Feb-15 23:00N 35°35' E 140°05'2 3.3
2018-Feb-15 22:30N 35°34' E 140°03'0 0.0
2018-Feb-15 22:00N 35°34' E 140°03'0 0.0
2018-Feb-15 21:30N 35°34' E 140°03'0 0.0
2018-Feb-15 21:00N 35°34' E 140°03'0 0.0
2018-Feb-15 20:30N 35°34' E 140°03'0 0.0
2018-Feb-15 20:00N 35°34' E 140°03'0 0.0
2018-Feb-15 19:30N 35°34' E 140°03'0 0.0
2018-Feb-15 19:00N 35°34' E 140°03'0 0.0
2018-Feb-15 18:30N 35°34' E 140°03'0 0.1
2018-Feb-15 18:00N 35°34' E 140°03'0 0.0
2018-Feb-15 17:30N 35°34' E 140°03'0 0.0
2018-Feb-15 17:00N 35°34' E 140°03'0 0.1
2018-Feb-15 16:30N 35°34' E 140°03'1 2.5
2018-Feb-15 16:00N 35°34' E 140°02'511.0
2018-Feb-15 15:30N 35°31' E 139°56'611.2
2018-Feb-15 15:00N 35°28' E 139°51'511.0
2018-Feb-15 14:30N 35°24' E 139°46'611.0
2018-Feb-15 14:00N 35°18' E 139°44'510.6
2018-Feb-15 13:30N 35°13' E 139°47'510.7
2018-Feb-15 13:00N 35°08' E 139°46'710.9
2018-Feb-15 12:21N 35°01' E 139°42'411.2
2018-Feb-15 12:00N 34°59' E 139°38'1612.1
2018-Feb-15 10:41N 34°50' E 139°22'213.4
2018-Feb-15 10:30N 34°49' E 139°20'713.1
2018-Feb-15 09:59N 34°44' E 139°14'612.9
2018-Feb-15 09:30N 34°40' E 139°08'712.2
2018-Feb-15 08:55N 34°37' E 139°00'512.1
2018-Feb-15 08:30N 34°35' E 138°55'811.5
2018-Feb-15 07:50N 34°34' E 138°46'611.4
2018-Feb-15 07:21N 34°33' E 138°39'411.1
2018-Feb-15 06:57N 34°33' E 138°34'711.6
2018-Feb-15 06:23N 34°33' E 138°25'512.1
2018-Feb-15 05:57N 34°33' E 138°19'612.3
2018-Feb-15 05:27N 34°32' E 138°12'611.9
2018-Feb-15 04:57N 34°32' E 138°04'6810.5
2018-Feb-14 22:28N 34°09' E 136°47'86 8.8
2018-Feb-14 12:40N 33°50' E 135°06'211.8
2018-Feb-14 12:28N 33°51' E 135°04'611.2
2018-Feb-14 11:56N 33°57' E 135°01'511.3
2018-Feb-14 11:30N 34°02' E 135°00'611.2
2018-Feb-14 11:00N 34°07' E 134°60'611.3
2018-Feb-14 10:30N 34°13' E 134°59'510.8
2018-Feb-14 10:00N 34°18' E 134°58'510.9
2018-Feb-14 09:30N 34°24' E 135°00'511.0
2018-Feb-14 09:01N 34°29' E 135°02'510.5
2018-Feb-14 08:30N 34°34' E 135°03'5 9.5
2018-Feb-14 08:00N 34°37' E 134°59'510.6
2018-Feb-14 07:30N 34°38' E 134°52'5 9.4
2018-Feb-14 07:00N 34°42' E 134°51'0 0.9
2018-Feb-14 06:30N 34°42' E 134°51'0 0.0
2018-Feb-14 06:00N 34°42' E 134°51'0 0.0
2018-Feb-14 05:30N 34°42' E 134°51'0 0.0
2018-Feb-14 05:00N 34°42' E 134°51'0 0.0
2018-Feb-14 04:30N 34°42' E 134°51'0 0.0
2018-Feb-14 04:00N 34°42' E 134°51'0 0.0
2018-Feb-14 03:30N 34°42' E 134°51'0 0.0
2018-Feb-14 03:00N 34°42' E 134°51'0 0.0
2018-Feb-14 02:30N 34°42' E 134°51'0 0.0
2018-Feb-14 02:00N 34°42' E 134°51'0 0.0
2018-Feb-14 01:30N 34°42' E 134°51'0 0.0
2018-Feb-14 01:00N 34°42' E 134°51'0 0.0
2018-Feb-14 00:30N 34°42' E 134°51'0 0.0
2018-Feb-14 00:00N 34°42' E 134°51'0 0.0
2018-Feb-13 23:30N 34°42' E 134°51'0 0.1
2018-Feb-13 23:00N 34°42' E 134°51'0 0.0
2018-Feb-13 07:04N 34°43' E 134°51'0 0.4
2018-Feb-13 06:55N 34°42' E 134°51'2 5.3
2018-Feb-13 06:30N 34°41' E 134°50'5 9.7
2018-Feb-13 06:00N 34°37' E 134°54'5 9.9
2018-Feb-13 05:30N 34°38' E 135°00'4 8.0
2018-Feb-13 05:00N 34°36' E 135°05'510.2
2018-Feb-13 04:30N 34°36' E 135°11'510.6
2018-Feb-13 04:01N 34°38' E 135°17'510.5
2018-Feb-13 03:30N 34°38' E 135°23'2 3.5
2018-Feb-13 03:00N 34°40' E 135°25'0 0.0
2018-Feb-13 02:30N 34°40' E 135°25'0 0.0
2018-Feb-13 02:00N 34°40' E 135°25'0 0.0
2018-Feb-13 01:30N 34°40' E 135°25'0 0.0
2018-Feb-13 01:00N 34°40' E 135°25'0 0.0
2018-Feb-13 00:30N 34°40' E 135°25'0 0.0
2018-Feb-13 00:00N 34°40' E 135°25'0 0.0
2018-Feb-12 23:30N 34°40' E 135°25'1 2.1
2018-Feb-12 23:00N 34°39' E 135°24'2 3.4
2018-Feb-12 22:30N 34°37' E 135°23'0 0.0
2018-Feb-12 22:00N 34°37' E 135°23'0 0.0
2018-Feb-12 21:30N 34°37' E 135°23'0 0.0
2018-Feb-12 21:00N 34°37' E 135°23'0 0.0
2018-Feb-12 20:30N 34°37' E 135°23'0 0.0
2018-Feb-12 20:00N 34°37' E 135°23'0 0.0
2018-Feb-12 19:30N 34°37' E 135°23'0 0.0
2018-Feb-12 19:00N 34°37' E 135°23'0 0.0
2018-Feb-12 18:30N 34°37' E 135°23'0 0.0
2018-Feb-12 18:00N 34°37' E 135°23'0 0.0
2018-Feb-12 17:30N 34°37' E 135°23'0 0.0
2018-Feb-12 17:00N 34°37' E 135°23'0 0.0
2018-Feb-12 16:29N 34°37' E 135°23'0 0.0
2018-Feb-12 16:00N 34°37' E 135°23'0 0.0
2018-Feb-12 15:29N 34°37' E 135°23'0 0.0
2018-Feb-12 15:01N 34°37' E 135°23'  

Dump ship's entire track history